createdAt,value
2017-05-23T00:00:12.788Z,1005
2017-05-23T00:00:53.262Z,1005.04
2017-05-23T00:01:33.750Z,1004.99
2017-05-23T00:02:14.246Z,1005.02
2017-05-23T00:02:54.725Z,1004.98
2017-05-23T00:03:35.225Z,1005.01
2017-05-23T00:04:15.720Z,1005.01
2017-05-23T00:04:56.240Z,1004.97
2017-05-23T00:05:36.695Z,1004.98
2017-05-23T00:06:17.196Z,1004.98
2017-05-23T00:06:57.661Z,1004.97
2017-05-23T00:07:39.059Z,1004.95
2017-05-23T00:08:19.537Z,1004.93
2017-05-23T00:08:59.977Z,1004.93
2017-05-23T00:10:57.649Z,1004.94
2017-05-23T00:11:38.101Z,1004.96
2017-05-23T00:12:18.579Z,1004.93
2017-05-23T00:12:59.073Z,1004.92
2017-05-23T00:13:39.525Z,1004.96
2017-05-23T00:14:21.004Z,1004.93
2017-05-23T00:15:01.487Z,1004.93
2017-05-23T00:15:41.969Z,1004.91
2017-05-23T00:16:22.438Z,1004.91
2017-05-23T00:17:02.918Z,1004.9
2017-05-23T00:17:43.422Z,1004.84
2017-05-23T00:18:23.910Z,1004.85
2017-05-23T00:19:04.396Z,1004.81
2017-05-23T00:19:45.602Z,1004.83
2017-05-23T00:20:26.108Z,1004.84
2017-05-23T00:21:06.569Z,1004.84
2017-05-23T00:21:47.594Z,1004.82
2017-05-23T00:24:00.379Z,1004.8
2017-05-23T00:24:40.859Z,1004.82
2017-05-23T00:25:21.342Z,1004.82
2017-05-23T00:26:02.774Z,1004.82
2017-05-23T00:26:43.254Z,1004.83
2017-05-23T00:29:11.171Z,1004.87
2017-05-23T00:29:51.649Z,1004.85
2017-05-23T00:30:32.161Z,1004.85
2017-05-23T00:31:12.639Z,1004.89
2017-05-23T00:31:53.106Z,1004.87
2017-05-23T00:32:33.595Z,1004.84
2017-05-23T00:33:15.019Z,1004.87
2017-05-23T00:33:55.488Z,1004.86
2017-05-23T00:36:14.163Z,1004.84
2017-05-23T00:36:55.363Z,1004.87
2017-05-23T00:37:35.836Z,1004.87
2017-05-23T00:38:16.353Z,1004.86
2017-05-23T00:38:56.838Z,1004.87
2017-05-23T00:39:37.344Z,1004.86
2017-05-23T00:40:18.346Z,1004.83
2017-05-23T00:40:58.813Z,1004.8
2017-05-23T00:41:39.289Z,1004.83
2017-05-23T00:42:19.778Z,1004.82
2017-05-23T00:43:00.278Z,1004.81
2017-05-23T00:45:18.059Z,1004.84
2017-05-23T00:45:58.581Z,1004.85
2017-05-23T00:46:39.059Z,1004.85
2017-05-23T00:47:19.538Z,1004.83
2017-05-23T00:49:37.327Z,1004.8
2017-05-23T00:50:17.822Z,1004.77
2017-05-23T00:50:58.306Z,1004.75
2017-05-23T00:51:38.778Z,1004.76
2017-05-23T00:52:19.265Z,1004.72
2017-05-23T00:52:59.764Z,1004.71
2017-05-23T00:53:40.237Z,1004.74
2017-05-23T00:54:20.720Z,1004.72
2017-05-23T00:55:01.195Z,1004.73
2017-05-23T00:55:41.711Z,1004.75
2017-05-23T00:56:22.186Z,1004.73
2017-05-23T00:57:02.681Z,1004.74
2017-05-23T00:57:43.187Z,1004.75
2017-05-23T00:58:23.659Z,1004.75
2017-05-23T00:59:04.152Z,1004.8
2017-05-23T00:59:44.659Z,1004.77
2017-05-23T01:00:25.131Z,1004.8
2017-05-23T01:01:05.633Z,1004.84
2017-05-23T01:01:46.073Z,1004.83
2017-05-23T01:02:26.638Z,1004.84
2017-05-23T01:03:07.064Z,1004.86
2017-05-23T01:03:47.542Z,1004.87
2017-05-23T01:04:28.043Z,1004.86
2017-05-23T01:05:08.539Z,1004.83
2017-05-23T01:05:49.021Z,1004.86
2017-05-23T01:06:29.521Z,1004.84
2017-05-23T01:07:10.943Z,1004.88
2017-05-23T01:07:52.357Z,1004.85
2017-05-23T01:08:32.843Z,1004.87
2017-05-23T01:09:13.336Z,1004.85
2017-05-23T01:09:54.640Z,1004.83
2017-05-23T01:10:35.138Z,1004.83
2017-05-23T01:11:15.647Z,1004.83
2017-05-23T01:11:56.127Z,1004.88
2017-05-23T01:12:36.596Z,1004.9
2017-05-23T01:13:17.086Z,1004.86
2017-05-23T01:13:57.568Z,1004.86
2017-05-23T01:14:38.047Z,1004.86
2017-05-23T01:15:18.536Z,1004.85
2017-05-23T01:15:59.758Z,1004.9
2017-05-23T01:16:40.233Z,1004.87
2017-05-23T01:17:20.721Z,1004.86
2017-05-23T01:18:01.197Z,1004.85
2017-05-23T01:18:42.637Z,1004.91
2017-05-23T01:19:23.142Z,1004.9
2017-05-23T01:20:03.633Z,1004.91
2017-05-23T01:20:44.100Z,1004.9
2017-05-23T01:21:24.541Z,1004.93
2017-05-23T01:22:05.039Z,1004.93
2017-05-23T01:22:45.535Z,1004.95
2017-05-23T01:23:26.047Z,1004.92
2017-05-23T01:24:06.533Z,1004.93
2017-05-23T01:24:47.025Z,1004.96
2017-05-23T01:25:27.511Z,1004.92
2017-05-23T01:26:09.422Z,1004.94
2017-05-23T01:26:49.909Z,1004.96
2017-05-23T01:28:47.555Z,1004.93
2017-05-23T01:29:28.025Z,1004.91
2017-05-23T01:30:08.546Z,1004.95
2017-05-23T01:30:48.991Z,1004.96
2017-05-23T01:31:29.478Z,1004.92
2017-05-23T01:32:10.024Z,1004.9
2017-05-23T01:32:50.510Z,1004.95
2017-05-23T01:33:32.320Z,1004.91
2017-05-23T01:34:12.811Z,1004.9
2017-05-23T01:34:53.304Z,1004.9
2017-05-23T01:35:33.776Z,1004.87
2017-05-23T01:36:14.248Z,1004.9
2017-05-23T01:36:54.751Z,1004.86
2017-05-23T01:37:35.750Z,1004.9
2017-05-23T01:38:16.240Z,1004.88
2017-05-23T01:38:56.731Z,1004.89
2017-05-23T01:39:37.200Z,1004.9
2017-05-23T01:40:17.702Z,1004.88
2017-05-23T01:40:58.179Z,1004.9
2017-05-23T01:41:38.706Z,1004.88
2017-05-23T01:42:19.148Z,1004.92
2017-05-23T01:42:59.644Z,1004.9
2017-05-23T01:43:40.115Z,1004.91
2017-05-23T01:44:20.603Z,1004.92
2017-05-23T01:45:01.122Z,1004.92
2017-05-23T01:45:41.567Z,1004.92
2017-05-23T01:46:22.063Z,1004.92
2017-05-23T01:47:02.589Z,1004.94
2017-05-23T01:47:43.071Z,1004.91
2017-05-23T01:49:55.787Z,1004.94
2017-05-23T01:52:13.568Z,1004.96
2017-05-23T01:52:54.014Z,1005.01
2017-05-23T01:53:34.495Z,1004.99
2017-05-23T01:54:14.915Z,1005.03
2017-05-23T01:54:55.371Z,1005
2017-05-23T01:55:35.825Z,1005.02
2017-05-23T01:56:16.268Z,1005.01
2017-05-23T01:56:56.706Z,1005
2017-05-23T01:57:37.150Z,1005.02
2017-05-23T01:58:17.633Z,1005.02
2017-05-23T01:58:58.127Z,1005.03
2017-05-23T01:59:38.609Z,1005.03
2017-05-23T02:00:19.105Z,1005.03
2017-05-23T02:00:59.603Z,1005.01
2017-05-23T02:01:40.070Z,1005.01
2017-05-23T02:02:20.525Z,1005.02
2017-05-23T02:03:01.016Z,1005.03
2017-05-23T02:03:41.499Z,1004.94
2017-05-23T02:04:21.989Z,1004.96
2017-05-23T02:05:02.465Z,1004.97
2017-05-23T02:05:42.938Z,1004.97
2017-05-23T02:06:23.414Z,1004.99
2017-05-23T02:07:03.931Z,1005
2017-05-23T02:07:44.551Z,1004.98
2017-05-23T02:08:25.037Z,1005.02
2017-05-23T02:09:05.517Z,1004.98
2017-05-23T02:09:45.976Z,1005
2017-05-23T02:10:26.413Z,1005
2017-05-23T02:11:06.861Z,1005
2017-05-23T02:11:47.323Z,1005
2017-05-23T02:12:27.743Z,1005.01
2017-05-23T02:13:08.201Z,1004.98
2017-05-23T02:13:48.678Z,1005.02
2017-05-23T02:14:29.128Z,1005
2017-05-23T02:15:09.573Z,1005
2017-05-23T02:15:50.021Z,1005.02
2017-05-23T02:16:30.498Z,1005.02
2017-05-23T02:17:10.953Z,1004.98
2017-05-23T02:17:51.384Z,1005.02
2017-05-23T02:18:31.808Z,1005.03
2017-05-23T02:19:12.266Z,1005.02
2017-05-23T02:19:52.729Z,1005.03
2017-05-23T02:20:33.215Z,1005.04
2017-05-23T02:21:13.745Z,1004.98
2017-05-23T02:21:54.228Z,1005.01
2017-05-23T02:22:34.706Z,1005
2017-05-23T02:23:15.189Z,1005
2017-05-23T02:23:55.675Z,1005.03
2017-05-23T02:24:36.159Z,1005.06
2017-05-23T02:25:16.651Z,1005.03
2017-05-23T02:25:57.151Z,1005.04
2017-05-23T02:26:37.640Z,1005.07
2017-05-23T02:27:18.140Z,1005.06
2017-05-23T02:27:58.628Z,1005.03
2017-05-23T02:28:39.121Z,1005.05
2017-05-23T02:29:19.605Z,1005.07
2017-05-23T02:30:00.073Z,1005.03
2017-05-23T02:30:40.511Z,1005.07
2017-05-23T02:31:20.974Z,1005.06
2017-05-23T02:32:01.451Z,1005.09
2017-05-23T02:32:41.939Z,1005.08
2017-05-23T02:33:22.417Z,1005.06
2017-05-23T02:34:02.900Z,1005.07
2017-05-23T02:34:43.394Z,1005.08
2017-05-23T02:35:23.870Z,1005.09
2017-05-23T02:36:04.356Z,1005.07
2017-05-23T02:36:44.839Z,1005.05
2017-05-23T02:37:25.334Z,1005.07
2017-05-23T02:38:05.810Z,1005.05
2017-05-23T02:38:46.286Z,1005.03
2017-05-23T02:39:26.757Z,1005.05
2017-05-23T02:40:07.252Z,1005.04
2017-05-23T02:40:47.742Z,1005
2017-05-23T02:41:28.227Z,1005.04
2017-05-23T02:42:08.732Z,1005.04
2017-05-23T02:42:49.225Z,1005.02
2017-05-23T02:43:29.683Z,1005.04
2017-05-23T02:44:10.165Z,1005.03
2017-05-23T02:44:50.653Z,1005.04
2017-05-23T02:45:31.130Z,1005.05
2017-05-23T02:46:11.605Z,1005.05
2017-05-23T02:46:52.084Z,1005.04
2017-05-23T02:47:32.554Z,1005.05
2017-05-23T02:48:13.050Z,1005.04
2017-05-23T02:48:53.538Z,1005.07
2017-05-23T02:49:34.010Z,1005.07
2017-05-23T02:50:14.493Z,1005.05
2017-05-23T02:50:54.984Z,1005.07
2017-05-23T02:51:35.474Z,1005.06
2017-05-23T02:52:15.935Z,1005.08
2017-05-23T02:52:56.383Z,1005.06
2017-05-23T02:53:36.828Z,1005.05
2017-05-23T02:54:17.312Z,1005.05
2017-05-23T02:54:57.786Z,1005.07
2017-05-23T02:56:55.430Z,1005.06
2017-05-23T02:57:35.873Z,1005.06
2017-05-23T02:58:16.349Z,1005.05
2017-05-23T02:58:56.820Z,1005.06
2017-05-23T02:59:37.295Z,1005.04
2017-05-23T03:00:17.773Z,1005.07
2017-05-23T03:00:58.266Z,1005.09
2017-05-23T03:01:38.762Z,1005.07
2017-05-23T03:02:19.255Z,1005.06
2017-05-23T03:02:59.747Z,1005.07
2017-05-23T03:03:40.252Z,1005.06
2017-05-23T03:04:20.742Z,1005.07
2017-05-23T03:05:01.237Z,1005.09
2017-05-23T03:05:41.753Z,1005.1
2017-05-23T03:06:23.211Z,1005.09
2017-05-23T03:07:03.699Z,1005.08
2017-05-23T03:07:44.708Z,1005.08
2017-05-23T03:08:25.270Z,1005.07
2017-05-23T03:09:06.487Z,1005.08
2017-05-23T03:09:46.979Z,1005.03
2017-05-23T03:10:27.476Z,1005.04
2017-05-23T03:11:07.954Z,1005.05
2017-05-23T03:11:49.284Z,1005.06
2017-05-23T03:12:29.792Z,1005.05
2017-05-23T03:13:10.274Z,1005.06
2017-05-23T03:13:50.761Z,1005.05
2017-05-23T03:14:31.268Z,1005.05
2017-05-23T03:15:11.753Z,1005.08
2017-05-23T03:15:52.226Z,1005.05
2017-05-23T03:16:32.703Z,1005.05
2017-05-23T03:17:13.180Z,1005.03
2017-05-23T03:17:53.673Z,1005.04
2017-05-23T03:18:34.153Z,1005.03
2017-05-23T03:19:14.627Z,1005
2017-05-23T03:19:55.881Z,1005.01
2017-05-23T03:20:36.359Z,1004.97
2017-05-23T03:21:16.845Z,1005.01
2017-05-23T03:21:57.349Z,1005.03
2017-05-23T03:22:37.834Z,1005.05
2017-05-23T03:23:18.320Z,1005.05
2017-05-23T03:23:58.822Z,1005.05
2017-05-23T03:26:16.607Z,1005.07
2017-05-23T03:26:57.097Z,1005.05
2017-05-23T03:27:37.578Z,1005.05
2017-05-23T03:28:18.073Z,1005.04
2017-05-23T03:28:58.531Z,1005.02
2017-05-23T03:29:39.015Z,1005.06
2017-05-23T03:30:19.515Z,1005.05
2017-05-23T03:30:59.984Z,1005.04
2017-05-23T03:31:40.468Z,1005.06
2017-05-23T03:32:20.971Z,1005.08
2017-05-23T03:33:01.518Z,1005.05
2017-05-23T03:33:42.691Z,1005.07
2017-05-23T03:34:23.188Z,1005.05
2017-05-23T03:35:05.596Z,1005.03
2017-05-23T03:35:46.089Z,1005.05
2017-05-23T03:36:26.574Z,1005.06
2017-05-23T03:37:07.074Z,1005.06
2017-05-23T03:37:47.567Z,1005.06
2017-05-23T03:38:28.063Z,1005.09
2017-05-23T03:39:08.546Z,1005.09
2017-05-23T03:39:49.047Z,1005.09
2017-05-23T03:40:29.528Z,1005.1
2017-05-23T03:41:10.020Z,1005.07
2017-05-23T03:41:50.518Z,1005.08
2017-05-23T03:42:31.010Z,1005.09
2017-05-23T03:43:11.514Z,1005.08
2017-05-23T03:43:51.998Z,1005.08
2017-05-23T03:44:32.474Z,1005.07
2017-05-23T03:45:12.968Z,1005.09
2017-05-23T03:45:53.472Z,1005.11
2017-05-23T03:46:33.967Z,1005.12
2017-05-23T03:47:14.461Z,1005.12
2017-05-23T03:47:55.916Z,1005.11
2017-05-23T03:48:36.407Z,1005.11
2017-05-23T03:49:16.898Z,1005.09
2017-05-23T03:49:57.405Z,1005.09
2017-05-23T03:50:37.888Z,1005.11
2017-05-23T03:51:18.371Z,1005.15
2017-05-23T03:51:58.870Z,1005.12
2017-05-23T03:52:39.344Z,1005.11
2017-05-23T03:53:20.720Z,1005.12
2017-05-23T03:54:01.227Z,1005.1
2017-05-23T03:54:41.710Z,1005.11
2017-05-23T03:55:22.195Z,1005.09
2017-05-23T03:56:02.700Z,1005.13
2017-05-23T03:56:43.189Z,1005.15
2017-05-23T03:57:23.648Z,1005.12
2017-05-23T03:58:04.075Z,1005.12
2017-05-23T03:58:44.557Z,1005.16
2017-05-23T04:00:42.171Z,1005.18
2017-05-23T04:01:22.669Z,1005.18
2017-05-23T04:02:03.137Z,1005.2
2017-05-23T04:02:44.481Z,1005.22
2017-05-23T04:03:24.978Z,1005.23
2017-05-23T04:04:05.459Z,1005.23
2017-05-23T04:04:45.946Z,1005.24
2017-05-23T04:05:26.453Z,1005.21
2017-05-23T04:06:06.961Z,1005.23
2017-05-23T04:06:47.436Z,1005.26
2017-05-23T04:09:00.141Z,1005.28
2017-05-23T04:09:40.619Z,1005.29
2017-05-23T04:10:21.105Z,1005.29
2017-05-23T04:11:01.598Z,1005.29
2017-05-23T04:11:42.081Z,1005.31
2017-05-23T04:12:22.571Z,1005.31
2017-05-23T04:13:03.076Z,1005.3
2017-05-23T04:13:43.547Z,1005.34
2017-05-23T04:14:24.021Z,1005.33
2017-05-23T04:15:04.513Z,1005.33
2017-05-23T04:15:45.008Z,1005.37
2017-05-23T04:16:27.227Z,1005.37
2017-05-23T04:17:07.755Z,1005.37
2017-05-23T04:17:48.223Z,1005.38
2017-05-23T04:18:28.705Z,1005.38
2017-05-23T04:19:09.181Z,1005.43
2017-05-23T04:19:49.675Z,1005.43
2017-05-23T04:20:30.157Z,1005.46
2017-05-23T04:21:10.635Z,1005.46
2017-05-23T04:21:51.160Z,1005.48
2017-05-23T04:22:31.590Z,1005.47
2017-05-23T04:23:12.062Z,1005.48
2017-05-23T04:23:52.553Z,1005.53
2017-05-23T04:25:50.161Z,1005.57
2017-05-23T04:26:30.663Z,1005.59
2017-05-23T04:27:11.159Z,1005.63
2017-05-23T04:27:51.636Z,1005.64
2017-05-23T04:28:32.132Z,1005.65
2017-05-23T04:29:12.634Z,1005.68
2017-05-23T04:29:53.118Z,1005.69
2017-05-23T04:30:33.613Z,1005.68
2017-05-23T04:31:14.109Z,1005.69
2017-05-23T04:31:54.621Z,1005.72
2017-05-23T04:32:36.075Z,1005.73
2017-05-23T04:33:16.560Z,1005.77
2017-05-23T04:33:57.052Z,1005.73
2017-05-23T04:34:38.391Z,1005.72
2017-05-23T04:35:18.874Z,1005.74
2017-05-23T04:35:59.318Z,1005.72
2017-05-23T04:36:40.452Z,1005.77
2017-05-23T04:37:20.924Z,1005.77
2017-05-23T04:38:01.428Z,1005.74
2017-05-23T04:38:41.916Z,1005.75
2017-05-23T04:39:22.395Z,1005.76
2017-05-23T04:40:02.859Z,1005.76
2017-05-23T04:42:15.577Z,1005.82
2017-05-23T04:42:56.110Z,1005.78
2017-05-23T04:43:36.688Z,1005.79
2017-05-23T04:44:17.154Z,1005.83
2017-05-23T04:44:57.645Z,1005.81
2017-05-23T04:45:38.137Z,1005.8
2017-05-23T04:46:19.290Z,1005.85
2017-05-23T04:47:00.794Z,1005.89
2017-05-23T04:47:41.299Z,1005.86
2017-05-23T04:48:21.774Z,1005.87
2017-05-23T04:49:03.664Z,1005.89
2017-05-23T04:49:44.146Z,1005.91
2017-05-23T04:50:24.628Z,1005.89
2017-05-23T04:51:05.105Z,1005.87
2017-05-23T04:51:45.608Z,1005.94
2017-05-23T04:52:26.063Z,1005.95
2017-05-23T04:53:06.560Z,1005.92
2017-05-23T04:53:48.660Z,1005.91
2017-05-23T04:54:29.661Z,1005.95
2017-05-23T04:55:10.139Z,1005.91
2017-05-23T04:55:50.634Z,1005.91
2017-05-23T04:56:31.134Z,1005.87
2017-05-23T04:57:11.607Z,1005.9
2017-05-23T04:57:52.118Z,1005.91
2017-05-23T04:58:32.616Z,1005.92
2017-05-23T04:59:13.980Z,1005.91
2017-05-23T04:59:55.166Z,1005.91
2017-05-23T05:00:35.643Z,1005.91
2017-05-23T05:01:16.137Z,1005.89
2017-05-23T05:01:57.160Z,1005.92
2017-05-23T05:02:37.651Z,1005.89
2017-05-23T05:03:18.142Z,1005.84
2017-05-23T05:03:58.638Z,1005.83
2017-05-23T05:04:39.147Z,1005.83
2017-05-23T05:05:19.656Z,1005.86
2017-05-23T05:06:00.159Z,1005.87
2017-05-23T05:06:40.650Z,1005.86
2017-05-23T05:07:21.149Z,1005.84
2017-05-23T05:08:01.674Z,1005.83
2017-05-23T05:08:42.158Z,1005.84
2017-05-23T05:09:22.643Z,1005.84
2017-05-23T05:10:03.094Z,1005.84
2017-05-23T05:10:43.622Z,1005.86
2017-05-23T05:11:24.974Z,1005.9
2017-05-23T05:12:05.468Z,1005.91
2017-05-23T05:12:45.959Z,1005.88
2017-05-23T05:13:26.442Z,1005.92
2017-05-23T05:15:24.784Z,1005.95
2017-05-23T05:16:05.224Z,1005.93
2017-05-23T05:16:45.705Z,1005.98
2017-05-23T05:17:26.194Z,1005.93
2017-05-23T05:18:06.681Z,1005.96
2017-05-23T05:18:47.172Z,1005.97
2017-05-23T05:19:27.661Z,1005.95
2017-05-23T05:20:08.151Z,1005.93
2017-05-23T05:20:48.660Z,1005.97
2017-05-23T05:21:29.168Z,1006
2017-05-23T05:22:09.638Z,1005.98
2017-05-23T05:24:02.191Z,1005.99
2017-05-23T05:24:43.259Z,1005.98
2017-05-23T05:25:23.756Z,1006.04
2017-05-23T05:26:04.252Z,1006.03
2017-05-23T05:26:44.716Z,1006.04
2017-05-23T05:27:25.763Z,1006.05
2017-05-23T05:28:06.249Z,1006.04
2017-05-23T05:28:46.721Z,1006.09
2017-05-23T05:29:27.219Z,1006.1
2017-05-23T05:30:07.712Z,1006.11
2017-05-23T05:30:48.230Z,1006.13
2017-05-23T05:31:29.258Z,1006.13
2017-05-23T05:32:09.733Z,1006.15
2017-05-23T05:32:50.224Z,1006.16
2017-05-23T05:33:31.493Z,1006.15
2017-05-23T05:34:11.985Z,1006.16
2017-05-23T05:34:52.460Z,1006.21
2017-05-23T05:35:32.961Z,1006.18
2017-05-23T05:36:13.477Z,1006.2
2017-05-23T05:36:53.957Z,1006.21
2017-05-23T05:37:34.439Z,1006.26
2017-05-23T05:38:14.941Z,1006.26
2017-05-23T05:38:56.138Z,1006.27
2017-05-23T05:39:36.577Z,1006.29
2017-05-23T05:40:17.053Z,1006.31
2017-05-23T05:40:57.543Z,1006.34
2017-05-23T05:41:38.009Z,1006.37
2017-05-23T05:42:19.148Z,1006.36
2017-05-23T05:42:59.650Z,1006.34
2017-05-23T05:43:40.102Z,1006.36
2017-05-23T05:44:20.596Z,1006.4
2017-05-23T05:45:01.062Z,1006.4
2017-05-23T05:45:42.479Z,1006.39
2017-05-23T05:46:22.961Z,1006.39
2017-05-23T05:47:03.445Z,1006.39
2017-05-23T05:47:43.916Z,1006.41
2017-05-23T05:48:25.269Z,1006.4
2017-05-23T05:49:05.749Z,1006.47
2017-05-23T05:49:46.227Z,1006.46
2017-05-23T05:50:26.705Z,1006.5
2017-05-23T05:51:07.176Z,1006.5
2017-05-23T05:51:47.672Z,1006.5
2017-05-23T05:52:28.171Z,1006.46
2017-05-23T05:53:09.270Z,1006.51
2017-05-23T05:53:49.762Z,1006.5
2017-05-23T05:54:32.200Z,1006.53
2017-05-23T05:55:12.639Z,1006.57
2017-05-23T05:55:53.151Z,1006.61
2017-05-23T05:56:34.208Z,1006.62
2017-05-23T05:57:14.666Z,1006.59
2017-05-23T05:57:55.163Z,1006.58
2017-05-23T05:58:35.657Z,1006.57
2017-05-23T05:59:17.765Z,1006.63
2017-05-23T05:59:58.265Z,1006.6
2017-05-23T06:00:38.759Z,1006.58
2017-05-23T06:01:19.245Z,1006.57
2017-05-23T06:01:59.733Z,1006.63
2017-05-23T06:02:40.222Z,1006.64
2017-05-23T06:03:20.702Z,1006.63
2017-05-23T06:04:01.188Z,1006.63
2017-05-23T06:04:41.685Z,1006.66
2017-05-23T06:05:22.179Z,1006.64
2017-05-23T06:06:02.668Z,1006.67
2017-05-23T06:06:43.171Z,1006.69
2017-05-23T06:07:23.694Z,1006.68
2017-05-23T06:08:04.158Z,1006.68
2017-05-23T06:08:44.652Z,1006.71
2017-05-23T06:09:25.175Z,1006.73
2017-05-23T06:10:05.682Z,1006.72
2017-05-23T06:10:46.154Z,1006.71
2017-05-23T06:11:27.403Z,1006.7
2017-05-23T06:12:07.879Z,1006.72
2017-05-23T06:12:48.389Z,1006.7
2017-05-23T06:13:28.870Z,1006.73
2017-05-23T06:14:09.360Z,1006.78
2017-05-23T06:14:49.845Z,1006.71
2017-05-23T06:15:30.348Z,1006.76
2017-05-23T06:16:10.843Z,1006.75
2017-05-23T06:16:51.337Z,1006.75
2017-05-23T06:17:31.837Z,1006.76
2017-05-23T06:18:12.329Z,1006.76
2017-05-23T06:18:52.827Z,1006.74
2017-05-23T06:19:33.312Z,1006.76
2017-05-23T06:20:13.779Z,1006.75
2017-05-23T06:20:54.225Z,1006.78
2017-05-23T06:21:34.676Z,1006.77
2017-05-23T06:22:15.166Z,1006.8
2017-05-23T06:22:55.612Z,1006.81
2017-05-23T06:23:36.070Z,1006.82
2017-05-23T06:26:04.069Z,1006.82
2017-05-23T06:26:44.539Z,1006.81
2017-05-23T06:27:25.048Z,1006.83
2017-05-23T06:28:05.586Z,1006.79
2017-05-23T06:28:46.092Z,1006.79
2017-05-23T06:29:26.621Z,1006.84
2017-05-23T06:30:07.131Z,1006.8
2017-05-23T06:30:47.633Z,1006.79
2017-05-23T06:31:28.100Z,1006.84
2017-05-23T06:32:09.474Z,1006.85
2017-05-23T06:32:49.951Z,1006.8
2017-05-23T06:33:30.451Z,1006.79
2017-05-23T06:34:10.976Z,1006.84
2017-05-23T06:34:51.466Z,1006.79
2017-05-23T06:35:31.963Z,1006.78
2017-05-23T06:36:12.438Z,1006.78
2017-05-23T06:36:52.944Z,1006.78
2017-05-23T06:39:12.673Z,1006.75
2017-05-23T06:39:53.181Z,1006.8
2017-05-23T06:40:34.346Z,1006.84
2017-05-23T06:41:14.819Z,1006.81
2017-05-23T06:41:55.348Z,1006.85
2017-05-23T06:42:35.826Z,1006.82
2017-05-23T06:43:16.355Z,1006.88
2017-05-23T06:43:56.836Z,1006.85
2017-05-23T06:44:37.372Z,1006.94
2017-05-23T06:45:17.855Z,1006.98
2017-05-23T06:45:58.340Z,1006.96
2017-05-23T06:47:51.319Z,1006.97
2017-05-23T06:48:31.726Z,1007
2017-05-23T06:49:12.199Z,1006.95
2017-05-23T06:49:52.686Z,1006.92
2017-05-23T06:50:33.106Z,1006.94
2017-05-23T06:51:13.551Z,1006.95
2017-05-23T06:51:54.028Z,1006.95
2017-05-23T06:52:34.529Z,1006.9
2017-05-23T06:53:15.087Z,1006.96
2017-05-23T06:53:55.903Z,1006.96
2017-05-23T06:54:36.507Z,1006.99
2017-05-23T06:55:16.918Z,1006.86
2017-05-23T06:55:58.008Z,1006.92
2017-05-23T06:56:38.459Z,1006.88
2017-05-23T06:58:36.101Z,1006.95
2017-05-23T06:59:16.596Z,1006.91
2017-05-23T06:59:57.080Z,1006.92
2017-05-23T07:00:38.275Z,1006.91
2017-05-23T07:01:19.654Z,1006.89
2017-05-23T07:02:00.135Z,1006.9
2017-05-23T07:02:40.632Z,1006.86
2017-05-23T07:03:21.176Z,1006.83
2017-05-23T07:05:38.990Z,1006.8
2017-05-23T07:06:19.517Z,1006.73
2017-05-23T07:06:59.937Z,1006.74
2017-05-23T07:07:40.484Z,1006.78
2017-05-23T07:08:20.960Z,1006.75
2017-05-23T07:09:01.450Z,1006.75
2017-05-23T07:10:59.232Z,1006.76
2017-05-23T07:11:39.619Z,1006.8
2017-05-23T07:12:20.112Z,1006.77
2017-05-23T07:13:00.564Z,1006.79
2017-05-23T07:13:41.058Z,1006.83
2017-05-23T07:14:21.503Z,1006.87
2017-05-23T07:15:01.970Z,1006.91
2017-05-23T07:15:42.455Z,1006.91
2017-05-23T07:16:22.968Z,1006.99
2017-05-23T07:17:03.433Z,1007
2017-05-23T07:17:43.904Z,1006.97
2017-05-23T07:18:24.364Z,1006.95
2017-05-23T07:19:04.863Z,1006.9
2017-05-23T07:19:45.338Z,1006.85
2017-05-23T07:20:25.789Z,1006.78
2017-05-23T07:21:06.311Z,1006.82
2017-05-23T07:21:46.821Z,1006.77
2017-05-23T07:22:27.374Z,1006.77
2017-05-23T07:23:07.840Z,1006.77
2017-05-23T07:23:48.335Z,1006.79
2017-05-23T07:24:28.829Z,1006.75
2017-05-23T07:25:09.305Z,1006.75
2017-05-23T07:25:49.822Z,1006.8
2017-05-23T07:26:30.231Z,1006.79
2017-05-23T07:27:10.713Z,1006.76
2017-05-23T07:27:51.146Z,1006.8
2017-05-23T07:28:31.624Z,1006.83
2017-05-23T07:29:12.103Z,1006.85
2017-05-23T07:29:52.639Z,1006.81
2017-05-23T07:30:33.198Z,1006.85
2017-05-23T07:31:13.739Z,1006.85
2017-05-23T07:31:54.250Z,1006.87
2017-05-23T07:32:34.712Z,1006.87
2017-05-23T07:33:15.213Z,1006.83
2017-05-23T07:33:55.694Z,1006.87
2017-05-23T07:34:36.259Z,1006.87
2017-05-23T07:35:16.731Z,1006.82
2017-05-23T07:35:57.214Z,1006.87
2017-05-23T07:36:37.721Z,1006.84
2017-05-23T07:37:18.298Z,1006.86
2017-05-23T07:37:58.843Z,1006.87
2017-05-23T07:38:39.334Z,1006.81
2017-05-23T07:39:19.809Z,1006.84
2017-05-23T07:40:00.314Z,1006.9
2017-05-23T07:40:40.810Z,1006.85
2017-05-23T07:41:21.226Z,1006.84
2017-05-23T07:42:01.706Z,1006.9
2017-05-23T07:42:42.196Z,1006.87
2017-05-23T07:43:22.652Z,1006.85
2017-05-23T07:44:03.128Z,1006.83
2017-05-23T07:44:43.604Z,1006.86
2017-05-23T07:45:24.076Z,1006.88
2017-05-23T07:46:04.585Z,1006.87
2017-05-23T07:46:44.978Z,1006.82
2017-05-23T07:47:25.462Z,1006.8
2017-05-23T07:48:05.986Z,1006.82
2017-05-23T07:48:46.461Z,1006.85
2017-05-23T07:49:26.993Z,1006.83
2017-05-23T07:50:07.535Z,1006.79
2017-05-23T07:50:48.072Z,1006.88
2017-05-23T07:51:28.655Z,1006.87
2017-05-23T07:52:09.286Z,1006.92
2017-05-23T07:52:49.915Z,1006.88
2017-05-23T07:53:30.517Z,1006.86
2017-05-23T07:54:11.017Z,1006.9
2017-05-23T07:54:51.572Z,1006.91
2017-05-23T07:55:32.079Z,1006.91
2017-05-23T07:56:12.621Z,1006.94
2017-05-23T07:56:53.241Z,1006.93
2017-05-23T07:57:33.894Z,1007.1
2017-05-23T07:58:14.465Z,1007.08
2017-05-23T07:58:54.963Z,1007.08
2017-05-23T07:59:35.736Z,1007.1
2017-05-23T08:00:16.090Z,1007.07
2017-05-23T08:00:56.710Z,1007.04
2017-05-23T08:01:37.242Z,1007.08
2017-05-23T08:02:17.881Z,1007.06
2017-05-23T08:02:58.356Z,1007.05
2017-05-23T08:03:38.968Z,1007.03
2017-05-23T08:04:19.465Z,1007.09
2017-05-23T08:04:59.939Z,1007.07
2017-05-23T08:05:40.665Z,1007.07
2017-05-23T08:06:21.232Z,1006.99
2017-05-23T08:07:01.956Z,1007
2017-05-23T08:07:42.463Z,1007.07
2017-05-23T08:08:23.002Z,1006.97
2017-05-23T08:09:03.595Z,1006.98
2017-05-23T08:09:44.194Z,1006.99
2017-05-23T08:10:24.791Z,1006.94
2017-05-23T08:11:05.285Z,1006.94
2017-05-23T08:11:45.923Z,1006.87
2017-05-23T08:12:26.394Z,1006.92
2017-05-23T08:13:06.961Z,1006.78
2017-05-23T08:13:47.482Z,1006.84
2017-05-23T08:14:27.980Z,1006.82
2017-05-23T08:15:08.429Z,1006.8
2017-05-23T08:15:48.938Z,1006.83
2017-05-23T08:16:29.390Z,1006.83
2017-05-23T08:17:09.905Z,1006.9
2017-05-23T08:17:50.412Z,1006.92
2017-05-23T08:18:30.862Z,1006.94
2017-05-23T08:19:11.345Z,1006.94
2017-05-23T08:19:51.886Z,1006.94
2017-05-23T08:20:32.354Z,1007.02
2017-05-23T08:21:13.143Z,1006.92
2017-05-23T08:21:53.669Z,1006.95
2017-05-23T08:22:34.354Z,1006.94
2017-05-23T08:23:16.016Z,1006.95
2017-05-23T08:23:56.218Z,1006.93
2017-05-23T08:24:36.942Z,1006.89
2017-05-23T08:25:18.098Z,1006.93
2017-05-23T08:25:58.587Z,1006.93
2017-05-23T08:26:39.071Z,1006.94
2017-05-23T08:27:19.598Z,1006.93
2017-05-23T08:28:00.110Z,1006.93
2017-05-23T08:28:43.418Z,1006.96
2017-05-23T08:29:23.953Z,1006.92
2017-05-23T08:30:04.515Z,1006.96
2017-05-23T08:30:44.921Z,1006.94
2017-05-23T08:31:25.349Z,1006.99
2017-05-23T08:33:38.155Z,1006.96
2017-05-23T08:34:18.651Z,1006.97
2017-05-23T08:34:59.216Z,1006.97
2017-05-23T08:35:40.513Z,1007.05
2017-05-23T08:36:21.008Z,1006.98
2017-05-23T08:37:01.503Z,1007.04
2017-05-23T08:37:42.045Z,1007.1
2017-05-23T08:38:22.534Z,1007.06
2017-05-23T08:39:03.031Z,1007.15
2017-05-23T08:39:43.528Z,1007.11
2017-05-23T08:40:23.988Z,1007.06
2017-05-23T08:41:04.474Z,1007.13
2017-05-23T08:41:44.964Z,1007.12
2017-05-23T08:42:25.588Z,1007.15
2017-05-23T08:43:06.153Z,1007.17
2017-05-23T08:43:46.636Z,1007.21
2017-05-23T08:44:27.130Z,1007.13
2017-05-23T08:46:39.899Z,1007.14
2017-05-23T08:47:20.382Z,1007.14
2017-05-23T08:48:00.832Z,1007.13
2017-05-23T08:48:41.845Z,1007.1
2017-05-23T08:49:22.347Z,1007.13
2017-05-23T08:51:41.334Z,1007.17